ZSQD Airport Information

Runway Information
Runway 17 Length 11155 ft width 148 ft
Elevation 33 ft Threshold 0 ft Heading 166
Runway 35 Length 11155 ft Width 148 ft
Elevation 33 ft Threshold 0 ft Heading 346
Airport Frequencies
Type APP Name QINGDAO Frequency 119.4 MHZ
Type ATIS Name ATIS Frequency 127.2 MHZ
Type GND Name QINGDAO GN Frequency 121.65 MHZ
Type TWR Name QINGDAO TW Frequency 118.7 MHZ
Airport Navaids
Type VOR-DME Name Qingdao Frequency 117500 KHZ
Type VOR-DME Name Xuejiadao Frequency 117000 KHZ
Airport Weather Information & NOTAM
ADDS - METARS form results

(0116 UTC 23 January 2019)
Data provider http://aviationweather.gov/metar/data/
 
METAR text: ZSQD 230100Z VRB01MPS 4500 HZ NSC 03/M08 Q1024 NOSIG
Conditions at: ZSQD (QINGDAO/TSINGTAO, CN) observed 0100 UTC 23 January 2019
Temperature: 3.0°C (37°F)
Dewpoint: -8.0°C (18°F) [RH = 44%]
Pressure (altimeter): 30.24 inches Hg (1024.0 mb)
Winds: variable direction winds at 2 MPH (2 knots; 1.0 m/s)
Visibility: 2.80 miles (4.51 km)
Ceiling: at least 12,000 feet AGL
Clouds: sky clear below 12,000 feet AGL
Weather: HZ  (haze)

Forecast for: ZSQD (QINGDAO/TSINGTAO, CN)
Text: TAF ZSQD 221907Z 2300/2324 35004MPS 5000 BR NSC TX10/2306Z TNM05/21Z
Forecast period: 0000 UTC 23 January 2019 to 0000 UTC 24 January 2019
Forecast type: FROM: standard forecast or significant change
Winds: from the N (350 degrees) at 9 MPH (8 knots; 4.1 m/s)
Visibility: 3 miles (5 km)
Ceiling: unknown
Clouds: missing
Weather: BR  (mist)